sensor_id;sensor_type;location;lat;lon;timestamp;P1;durP1;ratioP1;P2;durP2;ratioP2
80854;SDS011;70272;49.222;-122.892;2023-07-13T00:00:46;3.67;;;2.38;;
80854;SDS011;70272;49.222;-122.892;2023-07-13T00:03:12;2.80;;;2.05;;
80854;SDS011;70272;49.222;-122.892;2023-07-13T00:05:39;3.90;;;2.30;;
80854;SDS011;70272;49.222;-122.892;2023-07-13T00:08:06;4.40;;;2.50;;
80854;SDS011;70272;49.222;-122.892;2023-07-13T00:10:33;3.42;;;2.28;;
80854;SDS011;70272;49.222;-122.892;2023-07-13T00:13:04;3.95;;;2.65;;
80854;SDS011;70272;49.222;-122.892;2023-07-13T00:15:30;3.80;;;2.50;;
80854;SDS011;70272;49.222;-122.892;2023-07-13T00:17:57;3.58;;;2.28;;
80854;SDS011;70272;49.222;-122.892;2023-07-13T00:20:26;4.22;;;2.35;;
80854;SDS011;70272;49.222;-122.892;2023-07-13T00:22:52;4.05;;;3.00;;
80854;SDS011;70272;49.222;-122.892;2023-07-13T00:25:22;3.15;;;2.13;;
80854;SDS011;70272;49.222;-122.892;2023-07-13T00:27:55;3.00;;;2.30;;
80854;SDS011;70272;49.222;-122.892;2023-07-13T00:30:21;4.38;;;2.78;;
80854;SDS011;70272;49.222;-122.892;2023-07-13T00:32:48;3.97;;;2.72;;
80854;SDS011;70272;49.222;-122.892;2023-07-13T00:35:14;4.53;;;2.38;;
80854;SDS011;70272;49.222;-122.892;2023-07-13T00:37:40;4.47;;;2.50;;
80854;SDS011;70272;49.222;-122.892;2023-07-13T00:40:07;4.35;;;2.50;;
80854;SDS011;70272;49.222;-122.892;2023-07-13T00:42:36;3.58;;;2.60;;
80854;SDS011;70272;49.222;-122.892;2023-07-13T00:45:04;3.15;;;2.30;;
80854;SDS011;70272;49.222;-122.892;2023-07-13T00:47:32;3.97;;;2.55;;
80854;SDS011;70272;49.222;-122.892;2023-07-13T00:49:59;3.30;;;2.40;;
80854;SDS011;70272;49.222;-122.892;2023-07-13T00:52:26;3.33;;;2.30;;
80854;SDS011;70272;49.222;-122.892;2023-07-13T00:54:53;3.60;;;2.10;;
80854;SDS011;70272;49.222;-122.892;2023-07-13T00:57:20;3.88;;;2.40;;
80854;SDS011;70272;49.222;-122.892;2023-07-13T00:59:48;3.80;;;2.60;;
80854;SDS011;70272;49.222;-122.892;2023-07-13T01:02:17;4.78;;;2.60;;
80854;SDS011;70272;49.222;-122.892;2023-07-13T01:04:43;4.25;;;2.78;;
80854;SDS011;70272;49.222;-122.892;2023-07-13T01:07:10;3.47;;;2.20;;
80854;SDS011;70272;49.222;-122.892;2023-07-13T01:09:37;3.10;;;2.50;;
80854;SDS011;70272;49.222;-122.892;2023-07-13T01:12:03;4.80;;;2.97;;
80854;SDS011;70272;49.222;-122.892;2023-07-13T01:14:30;4.25;;;2.85;;
80854;SDS011;70272;49.222;-122.892;2023-07-13T01:16:56;4.15;;;2.63;;
80854;SDS011;70272;49.222;-122.892;2023-07-13T01:22:05;3.45;;;2.22;;
80854;SDS011;70272;49.222;-122.892;2023-07-13T01:24:37;4.95;;;2.35;;
80854;SDS011;70272;49.222;-122.892;2023-07-13T01:27:06;3.10;;;2.25;;
80854;SDS011;70272;49.222;-122.892;2023-07-13T01:29:33;3.75;;;2.60;;
80854;SDS011;70272;49.222;-122.892;2023-07-13T01:32:10;3.38;;;2.22;;
80854;SDS011;70272;49.222;-122.892;2023-07-13T01:34:38;3.00;;;2.17;;
80854;SDS011;70272;49.222;-122.892;2023-07-13T01:37:10;4.05;;;2.65;;
80854;SDS011;70272;49.222;-122.892;2023-07-13T01:39:37;4.70;;;2.40;;
80854;SDS011;70272;49.222;-122.892;2023-07-13T01:42:03;4.38;;;2.63;;
80854;SDS011;70272;49.222;-122.892;2023-07-13T01:44:30;4.03;;;2.40;;
80854;SDS011;70272;49.222;-122.892;2023-07-13T01:46:56;3.15;;;2.33;;
80854;SDS011;70272;49.222;-122.892;2023-07-13T01:49:22;3.70;;;2.40;;
80854;SDS011;70272;49.222;-122.892;2023-07-13T01:51:48;3.50;;;2.47;;
80854;SDS011;70272;49.222;-122.892;2023-07-13T01:54:15;3.72;;;2.50;;
80854;SDS011;70272;49.222;-122.892;2023-07-13T01:56:41;3.20;;;2.28;;
80854;SDS011;70272;49.222;-122.892;2023-07-13T01:59:08;3.40;;;2.20;;
80854;SDS011;70272;49.222;-122.892;2023-07-13T02:01:34;3.90;;;2.60;;
80854;SDS011;70272;49.222;-122.892;2023-07-13T02:04:01;3.35;;;2.20;;
80854;SDS011;70272;49.222;-122.892;2023-07-13T02:06:28;4.43;;;2.50;;
80854;SDS011;70272;49.222;-122.892;2023-07-13T02:08:54;4.38;;;2.25;;
80854;SDS011;70272;49.222;-122.892;2023-07-13T02:11:21;3.17;;;2.25;;
80854;SDS011;70272;49.222;-122.892;2023-07-13T02:13:47;3.58;;;2.40;;
80854;SDS011;70272;49.222;-122.892;2023-07-13T02:16:14;3.17;;;2.30;;
80854;SDS011;70272;49.222;-122.892;2023-07-13T02:18:40;4.60;;;2.17;;
80854;SDS011;70272;49.222;-122.892;2023-07-13T02:21:06;3.35;;;2.22;;
80854;SDS011;70272;49.222;-122.892;2023-07-13T02:23:32;3.55;;;2.45;;
80854;SDS011;70272;49.222;-122.892;2023-07-13T02:25:59;3.42;;;2.30;;
80854;SDS011;70272;49.222;-122.892;2023-07-13T02:28:27;3.72;;;2.38;;
80854;SDS011;70272;49.222;-122.892;2023-07-13T02:30:54;4.20;;;2.20;;
80854;SDS011;70272;49.222;-122.892;2023-07-13T02:33:20;4.05;;;2.50;;
80854;SDS011;70272;49.222;-122.892;2023-07-13T02:35:46;3.33;;;2.42;;
80854;SDS011;70272;49.222;-122.892;2023-07-13T02:38:13;4.03;;;2.63;;
80854;SDS011;70272;49.222;-122.892;2023-07-13T02:40:39;3.80;;;2.45;;
80854;SDS011;70272;49.222;-122.892;2023-07-13T02:43:06;3.67;;;2.38;;
80854;SDS011;70272;49.222;-122.892;2023-07-13T02:45:32;2.97;;;2.15;;
80854;SDS011;70272;49.222;-122.892;2023-07-13T02:47:58;3.83;;;2.20;;
80854;SDS011;70272;49.222;-122.892;2023-07-13T02:50:24;3.35;;;2.00;;
80854;SDS011;70272;49.222;-122.892;2023-07-13T02:52:51;4.15;;;2.50;;
80854;SDS011;70272;49.222;-122.892;2023-07-13T02:55:17;4.10;;;2.50;;
80854;SDS011;70272;49.222;-122.892;2023-07-13T02:57:43;3.45;;;2.42;;
80854;SDS011;70272;49.222;-122.892;2023-07-13T03:00:09;3.72;;;2.63;;
80854;SDS011;70272;49.222;-122.892;2023-07-13T03:02:36;3.20;;;2.00;;
80854;SDS011;70272;49.222;-122.892;2023-07-13T03:05:03;3.80;;;2.35;;
80854;SDS011;70272;49.222;-122.892;2023-07-13T03:07:30;3.55;;;2.22;;
80854;SDS011;70272;49.222;-122.892;2023-07-13T03:09:58;3.88;;;2.55;;
80854;SDS011;70272;49.222;-122.892;2023-07-13T03:12:24;4.43;;;2.30;;
80854;SDS011;70272;49.222;-122.892;2023-07-13T03:14:51;3.15;;;2.30;;
80854;SDS011;70272;49.222;-122.892;2023-07-13T03:17:17;3.53;;;2.40;;
80854;SDS011;70272;49.222;-122.892;2023-07-13T03:19:44;3.50;;;2.22;;
80854;SDS011;70272;49.222;-122.892;2023-07-13T03:22:10;4.30;;;2.33;;
80854;SDS011;70272;49.222;-122.892;2023-07-13T03:24:36;3.75;;;2.70;;
80854;SDS011;70272;49.222;-122.892;2023-07-13T03:27:03;3.05;;;2.10;;
80854;SDS011;70272;49.222;-122.892;2023-07-13T03:29:30;3.65;;;2.30;;
80854;SDS011;70272;49.222;-122.892;2023-07-13T03:31:57;3.47;;;2.10;;
80854;SDS011;70272;49.222;-122.892;2023-07-13T03:34:23;4.38;;;2.53;;
80854;SDS011;70272;49.222;-122.892;2023-07-13T03:36:49;3.47;;;2.20;;
80854;SDS011;70272;49.222;-122.892;2023-07-13T03:39:15;3.65;;;2.33;;
80854;SDS011;70272;49.222;-122.892;2023-07-13T03:41:42;3.75;;;2.40;;
80854;SDS011;70272;49.222;-122.892;2023-07-13T03:44:08;3.40;;;2.20;;
80854;SDS011;70272;49.222;-122.892;2023-07-13T03:46:34;4.20;;;2.40;;
80854;SDS011;70272;49.222;-122.892;2023-07-13T03:49:00;3.60;;;2.45;;
80854;SDS011;70272;49.222;-122.892;2023-07-13T03:51:27;5.13;;;2.30;;
80854;SDS011;70272;49.222;-122.892;2023-07-13T03:53:53;3.97;;;2.30;;
80854;SDS011;70272;49.222;-122.892;2023-07-13T03:56:19;3.72;;;2.30;;
80854;SDS011;70272;49.222;-122.892;2023-07-13T03:58:47;3.80;;;2.30;;
80854;SDS011;70272;49.222;-122.892;2023-07-13T04:01:15;3.45;;;2.03;;
80854;SDS011;70272;49.222;-122.892;2023-07-13T04:03:43;3.15;;;2.25;;
80854;SDS011;70272;49.222;-122.892;2023-07-13T04:06:29;3.88;;;2.72;;
80854;SDS011;70272;49.222;-122.892;2023-07-13T04:09:00;4.32;;;2.45;;
80854;SDS011;70272;49.222;-122.892;2023-07-13T04:11:27;3.60;;;2.30;;
80854;SDS011;70272;49.222;-122.892;2023-07-13T04:13:56;3.88;;;2.60;;
80854;SDS011;70272;49.222;-122.892;2023-07-13T04:16:23;6.25;;;2.70;;
80854;SDS011;70272;49.222;-122.892;2023-07-13T04:18:49;5.05;;;2.45;;
80854;SDS011;70272;49.222;-122.892;2023-07-13T04:21:20;4.03;;;2.70;;
80854;SDS011;70272;49.222;-122.892;2023-07-13T04:23:47;3.75;;;2.67;;
80854;SDS011;70272;49.222;-122.892;2023-07-13T04:26:13;4.10;;;3.08;;
80854;SDS011;70272;49.222;-122.892;2023-07-13T04:28:39;3.67;;;3.00;;
80854;SDS011;70272;49.222;-122.892;2023-07-13T04:31:06;4.78;;;3.40;;
80854;SDS011;70272;49.222;-122.892;2023-07-13T04:33:32;4.38;;;2.80;;
80854;SDS011;70272;49.222;-122.892;2023-07-13T04:35:59;5.32;;;3.00;;
80854;SDS011;70272;49.222;-122.892;2023-07-13T04:38:28;5.03;;;2.90;;
80854;SDS011;70272;49.222;-122.892;2023-07-13T04:40:59;4.55;;;2.80;;
80854;SDS011;70272;49.222;-122.892;2023-07-13T04:45:53;4.60;;;2.80;;
80854;SDS011;70272;49.222;-122.892;2023-07-13T04:48:20;5.00;;;2.80;;
80854;SDS011;70272;49.222;-122.892;2023-07-13T04:50:46;4.72;;;2.70;;
80854;SDS011;70272;49.222;-122.892;2023-07-13T04:53:14;5.43;;;2.70;;
80854;SDS011;70272;49.222;-122.892;2023-07-13T04:55:41;7.97;;;2.53;;
80854;SDS011;70272;49.222;-122.892;2023-07-13T04:58:07;3.67;;;2.58;;
80854;SDS011;70272;49.222;-122.892;2023-07-13T05:00:33;5.15;;;2.53;;
80854;SDS011;70272;49.222;-122.892;2023-07-13T05:02:59;4.60;;;2.60;;
80854;SDS011;70272;49.222;-122.892;2023-07-13T05:05:26;3.08;;;2.17;;
80854;SDS011;70272;49.222;-122.892;2023-07-13T05:07:53;3.65;;;2.20;;
80854;SDS011;70272;49.222;-122.892;2023-07-13T05:10:19;7.03;;;2.38;;
80854;SDS011;70272;49.222;-122.892;2023-07-13T05:12:46;4.15;;;2.28;;
80854;SDS011;70272;49.222;-122.892;2023-07-13T05:15:12;4.55;;;2.33;;
80854;SDS011;70272;49.222;-122.892;2023-07-13T05:17:39;3.00;;;2.00;;
80854;SDS011;70272;49.222;-122.892;2023-07-13T05:20:06;3.30;;;2.50;;
80854;SDS011;70272;49.222;-122.892;2023-07-13T05:22:33;3.67;;;2.58;;
80854;SDS011;70272;49.222;-122.892;2023-07-13T05:25:04;4.57;;;2.50;;
80854;SDS011;70272;49.222;-122.892;2023-07-13T05:27:31;4.40;;;2.50;;
80854;SDS011;70272;49.222;-122.892;2023-07-13T05:29:58;4.63;;;2.40;;
80854;SDS011;70272;49.222;-122.892;2023-07-13T05:32:24;4.47;;;2.65;;
80854;SDS011;70272;49.222;-122.892;2023-07-13T05:34:50;3.63;;;2.70;;
80854;SDS011;70272;49.222;-122.892;2023-07-13T05:37:16;5.40;;;2.55;;
80854;SDS011;70272;49.222;-122.892;2023-07-13T05:39:43;4.00;;;2.70;;
80854;SDS011;70272;49.222;-122.892;2023-07-13T05:42:09;3.08;;;2.42;;
80854;SDS011;70272;49.222;-122.892;2023-07-13T05:44:35;4.18;;;2.10;;
80854;SDS011;70272;49.222;-122.892;2023-07-13T05:47:01;3.47;;;2.50;;
80854;SDS011;70272;49.222;-122.892;2023-07-13T05:49:29;3.63;;;2.40;;
80854;SDS011;70272;49.222;-122.892;2023-07-13T05:51:56;3.88;;;2.40;;
80854;SDS011;70272;49.222;-122.892;2023-07-13T05:54:22;4.07;;;2.63;;
80854;SDS011;70272;49.222;-122.892;2023-07-13T05:56:48;4.80;;;2.55;;
80854;SDS011;70272;49.222;-122.892;2023-07-13T05:59:15;5.20;;;2.55;;
80854;SDS011;70272;49.222;-122.892;2023-07-13T06:01:41;4.22;;;2.83;;
80854;SDS011;70272;49.222;-122.892;2023-07-13T06:04:07;4.35;;;2.55;;
80854;SDS011;70272;49.222;-122.892;2023-07-13T06:06:34;4.70;;;2.75;;
80854;SDS011;70272;49.222;-122.892;2023-07-13T06:09:00;4.57;;;2.47;;
80854;SDS011;70272;49.222;-122.892;2023-07-13T06:11:26;4.32;;;2.72;;
80854;SDS011;70272;49.222;-122.892;2023-07-13T06:13:55;4.43;;;2.75;;
80854;SDS011;70272;49.222;-122.892;2023-07-13T06:16:21;3.60;;;2.55;;
80854;SDS011;70272;49.222;-122.892;2023-07-13T06:18:48;5.32;;;2.60;;
80854;SDS011;70272;49.222;-122.892;2023-07-13T06:21:18;3.97;;;2.60;;
80854;SDS011;70272;49.222;-122.892;2023-07-13T06:23:46;5.45;;;2.85;;
80854;SDS011;70272;49.222;-122.892;2023-07-13T06:26:16;4.80;;;2.97;;
80854;SDS011;70272;49.222;-122.892;2023-07-13T06:28:43;4.50;;;2.63;;
80854;SDS011;70272;49.222;-122.892;2023-07-13T06:31:10;5.45;;;2.50;;
80854;SDS011;70272;49.222;-122.892;2023-07-13T06:33:37;4.88;;;2.40;;
80854;SDS011;70272;49.222;-122.892;2023-07-13T06:36:04;3.97;;;2.60;;
80854;SDS011;70272;49.222;-122.892;2023-07-13T06:38:33;4.60;;;3.00;;
80854;SDS011;70272;49.222;-122.892;2023-07-13T06:40:59;4.47;;;2.67;;
80854;SDS011;70272;49.222;-122.892;2023-07-13T06:43:25;4.45;;;2.92;;
80854;SDS011;70272;49.222;-122.892;2023-07-13T06:45:54;4.47;;;2.78;;
80854;SDS011;70272;49.222;-122.892;2023-07-13T06:48:21;5.53;;;2.97;;
80854;SDS011;70272;49.222;-122.892;2023-07-13T06:50:48;4.28;;;2.70;;
80854;SDS011;70272;49.222;-122.892;2023-07-13T06:53:19;4.00;;;2.70;;
80854;SDS011;70272;49.222;-122.892;2023-07-13T06:55:45;4.25;;;2.80;;
80854;SDS011;70272;49.222;-122.892;2023-07-13T06:58:12;3.83;;;2.78;;
80854;SDS011;70272;49.222;-122.892;2023-07-13T07:00:40;4.15;;;2.85;;
80854;SDS011;70272;49.222;-122.892;2023-07-13T07:03:06;4.80;;;2.83;;
80854;SDS011;70272;49.222;-122.892;2023-07-13T07:05:32;4.75;;;3.00;;
80854;SDS011;70272;49.222;-122.892;2023-07-13T07:07:59;4.20;;;3.25;;
80854;SDS011;70272;49.222;-122.892;2023-07-13T07:10:25;4.18;;;2.63;;
80854;SDS011;70272;49.222;-122.892;2023-07-13T07:12:52;5.43;;;3.00;;
80854;SDS011;70272;49.222;-122.892;2023-07-13T07:15:18;4.35;;;3.10;;
80854;SDS011;70272;49.222;-122.892;2023-07-13T07:17:44;5.72;;;3.20;;
80854;SDS011;70272;49.222;-122.892;2023-07-13T07:20:11;5.78;;;3.13;;
80854;SDS011;70272;49.222;-122.892;2023-07-13T07:22:38;5.63;;;2.92;;
80854;SDS011;70272;49.222;-122.892;2023-07-13T07:25:04;5.32;;;3.38;;
80854;SDS011;70272;49.222;-122.892;2023-07-13T07:27:31;7.68;;;3.70;;
80854;SDS011;70272;49.222;-122.892;2023-07-13T07:29:58;6.90;;;3.13;;
80854;SDS011;70272;49.222;-122.892;2023-07-13T07:32:25;5.50;;;3.10;;
80854;SDS011;70272;49.222;-122.892;2023-07-13T07:34:51;5.25;;;3.33;;
80854;SDS011;70272;49.222;-122.892;2023-07-13T07:37:17;5.05;;;3.05;;
80854;SDS011;70272;49.222;-122.892;2023-07-13T07:39:44;6.68;;;3.20;;
80854;SDS011;70272;49.222;-122.892;2023-07-13T07:42:10;5.32;;;3.30;;
80854;SDS011;70272;49.222;-122.892;2023-07-13T07:44:38;4.93;;;3.10;;
80854;SDS011;70272;49.222;-122.892;2023-07-13T07:47:05;5.85;;;3.13;;
80854;SDS011;70272;49.222;-122.892;2023-07-13T07:49:32;5.07;;;2.97;;
80854;SDS011;70272;49.222;-122.892;2023-07-13T07:51:58;3.78;;;2.85;;
80854;SDS011;70272;49.222;-122.892;2023-07-13T07:54:24;4.32;;;2.70;;
80854;SDS011;70272;49.222;-122.892;2023-07-13T07:56:50;4.28;;;2.80;;
80854;SDS011;70272;49.222;-122.892;2023-07-13T07:59:17;3.88;;;2.90;;
80854;SDS011;70272;49.222;-122.892;2023-07-13T08:01:43;4.20;;;2.63;;
80854;SDS011;70272;49.222;-122.892;2023-07-13T08:04:11;5.07;;;2.90;;
80854;SDS011;70272;49.222;-122.892;2023-07-13T08:06:38;4.63;;;2.60;;
80854;SDS011;70272;49.222;-122.892;2023-07-13T08:09:04;3.58;;;2.47;;
80854;SDS011;70272;49.222;-122.892;2023-07-13T08:11:31;4.18;;;2.60;;
80854;SDS011;70272;49.222;-122.892;2023-07-13T08:13:57;4.50;;;2.28;;
80854;SDS011;70272;49.222;-122.892;2023-07-13T08:16:24;7.18;;;2.42;;
80854;SDS011;70272;49.222;-122.892;2023-07-13T08:18:51;3.42;;;2.20;;
80854;SDS011;70272;49.222;-122.892;2023-07-13T08:21:17;3.72;;;2.25;;
80854;SDS011;70272;49.222;-122.892;2023-07-13T08:23:47;3.70;;;2.13;;
80854;SDS011;70272;49.222;-122.892;2023-07-13T08:26:13;3.15;;;2.30;;
80854;SDS011;70272;49.222;-122.892;2023-07-13T08:28:40;3.65;;;2.25;;
80854;SDS011;70272;49.222;-122.892;2023-07-13T08:31:06;2.58;;;2.10;;
80854;SDS011;70272;49.222;-122.892;2023-07-13T08:33:34;3.20;;;2.10;;
80854;SDS011;70272;49.222;-122.892;2023-07-13T08:36:01;3.40;;;2.45;;
80854;SDS011;70272;49.222;-122.892;2023-07-13T08:38:30;3.08;;;2.17;;
80854;SDS011;70272;49.222;-122.892;2023-07-13T08:40:57;4.43;;;2.40;;
80854;SDS011;70272;49.222;-122.892;2023-07-13T08:43:27;4.47;;;2.60;;
80854;SDS011;70272;49.222;-122.892;2023-07-13T08:45:58;3.95;;;2.30;;
80854;SDS011;70272;49.222;-122.892;2023-07-13T08:48:36;3.58;;;2.45;;
80854;SDS011;70272;49.222;-122.892;2023-07-13T08:53:52;3.83;;;2.10;;
80854;SDS011;70272;49.222;-122.892;2023-07-13T08:56:22;2.75;;;1.88;;
80854;SDS011;70272;49.222;-122.892;2023-07-13T08:58:53;3.65;;;2.08;;
80854;SDS011;70272;49.222;-122.892;2023-07-13T09:15:14;6.25;;;2.45;;
80854;SDS011;70272;49.222;-122.892;2023-07-13T09:17:51;3.25;;;1.80;;
80854;SDS011;70272;49.222;-122.892;2023-07-13T09:21:03;2.83;;;1.85;;
80854;SDS011;70272;49.222;-122.892;2023-07-13T09:23:28;3.83;;;1.90;;
80854;SDS011;70272;49.222;-122.892;2023-07-13T09:26:00;3.42;;;1.90;;
80854;SDS011;70272;49.222;-122.892;2023-07-13T09:28:44;4.25;;;2.45;;
80854;SDS011;70272;49.222;-122.892;2023-07-13T09:31:15;3.60;;;2.13;;
80854;SDS011;70272;49.222;-122.892;2023-07-13T09:33:47;2.47;;;1.70;;
80854;SDS011;70272;49.222;-122.892;2023-07-13T09:44:17;3.45;;;1.85;;
80854;SDS011;70272;49.222;-122.892;2023-07-13T09:46:54;2.65;;;1.48;;
80854;SDS011;70272;49.222;-122.892;2023-07-13T09:49:25;2.67;;;1.80;;
80854;SDS011;70272;49.222;-122.892;2023-07-13T09:51:57;3.47;;;2.25;;
80854;SDS011;70272;49.222;-122.892;2023-07-13T09:54:26;2.47;;;1.60;;
80854;SDS011;70272;49.222;-122.892;2023-07-13T09:56:56;2.92;;;1.80;;
80854;SDS011;70272;49.222;-122.892;2023-07-13T09:59:37;3.47;;;1.83;;
80854;SDS011;70272;49.222;-122.892;2023-07-13T10:04:56;2.17;;;1.48;;
80854;SDS011;70272;49.222;-122.892;2023-07-13T10:07:23;5.80;;;2.10;;
80854;SDS011;70272;49.222;-122.892;2023-07-13T10:09:54;3.45;;;1.70;;
80854;SDS011;70272;49.222;-122.892;2023-07-13T10:12:21;2.17;;;1.50;;
80854;SDS011;70272;49.222;-122.892;2023-07-13T10:14:52;2.85;;;1.70;;
80854;SDS011;70272;49.222;-122.892;2023-07-13T10:17:25;3.47;;;1.88;;
80854;SDS011;70272;49.222;-122.892;2023-07-13T10:19:57;3.15;;;1.80;;
80854;SDS011;70272;49.222;-122.892;2023-07-13T10:23:11;2.40;;;1.63;;
80854;SDS011;70272;49.222;-122.892;2023-07-13T10:25:19;2.83;;;1.70;;
80854;SDS011;70272;49.222;-122.892;2023-07-13T10:27:49;2.78;;;1.88;;
80854;SDS011;70272;49.222;-122.892;2023-07-13T10:30:19;1.83;;;1.52;;
80854;SDS011;70272;49.222;-122.892;2023-07-13T10:32:46;1.95;;;1.45;;
80854;SDS011;70272;49.222;-122.892;2023-07-13T10:35:13;4.40;;;1.83;;
80854;SDS011;70272;49.222;-122.892;2023-07-13T10:37:43;2.10;;;1.30;;
80854;SDS011;70272;49.222;-122.892;2023-07-13T10:40:15;2.33;;;1.60;;
80854;SDS011;70272;49.222;-122.892;2023-07-13T10:42:49;3.97;;;1.65;;
80854;SDS011;70272;49.222;-122.892;2023-07-13T10:45:21;2.33;;;1.50;;
80854;SDS011;70272;49.222;-122.892;2023-07-13T10:47:49;3.33;;;1.45;;
80854;SDS011;70272;49.222;-122.892;2023-07-13T10:50:27;2.50;;;1.60;;
80854;SDS011;70272;49.222;-122.892;2023-07-13T10:53:01;2.10;;;1.48;;
80854;SDS011;70272;49.222;-122.892;2023-07-13T10:55:33;2.40;;;1.85;;
80854;SDS011;70272;49.222;-122.892;2023-07-13T11:00:43;2.95;;;1.70;;
80854;SDS011;70272;49.222;-122.892;2023-07-13T11:03:24;1.92;;;1.50;;
80854;SDS011;70272;49.222;-122.892;2023-07-13T11:06:04;2.80;;;1.70;;
80854;SDS011;70272;49.222;-122.892;2023-07-13T11:10:57;2.47;;;1.50;;
80854;SDS011;70272;49.222;-122.892;2023-07-13T11:13:37;2.42;;;1.63;;
80854;SDS011;70272;49.222;-122.892;2023-07-13T11:18:53;2.33;;;1.52;;
80854;SDS011;70272;49.222;-122.892;2023-07-13T11:27:38;3.03;;;1.90;;
80854;SDS011;70272;49.222;-122.892;2023-07-13T11:30:14;4.55;;;1.67;;
80854;SDS011;70272;49.222;-122.892;2023-07-13T11:32:43;3.17;;;2.55;;
80854;SDS011;70272;49.222;-122.892;2023-07-13T11:35:22;2.17;;;1.70;;
80854;SDS011;70272;49.222;-122.892;2023-07-13T11:37:49;3.00;;;2.00;;
80854;SDS011;70272;49.222;-122.892;2023-07-13T11:40:17;5.28;;;2.10;;
80854;SDS011;70272;49.222;-122.892;2023-07-13T11:42:44;2.67;;;1.58;;
80854;SDS011;70272;49.222;-122.892;2023-07-13T11:45:20;2.78;;;1.65;;
80854;SDS011;70272;49.222;-122.892;2023-07-13T11:47:49;2.95;;;1.85;;
80854;SDS011;70272;49.222;-122.892;2023-07-13T11:50:22;2.58;;;1.70;;
80854;SDS011;70272;49.222;-122.892;2023-07-13T11:52:50;2.83;;;1.60;;
80854;SDS011;70272;49.222;-122.892;2023-07-13T11:55:20;3.60;;;1.90;;
80854;SDS011;70272;49.222;-122.892;2023-07-13T11:57:51;2.83;;;1.45;;
80854;SDS011;70272;49.222;-122.892;2023-07-13T12:00:23;5.18;;;1.83;;
80854;SDS011;70272;49.222;-122.892;2023-07-13T12:02:53;2.90;;;1.70;;
80854;SDS011;70272;49.222;-122.892;2023-07-13T12:05:21;4.60;;;1.75;;
80854;SDS011;70272;49.222;-122.892;2023-07-13T12:07:48;2.78;;;1.60;;
80854;SDS011;70272;49.222;-122.892;2023-07-13T12:10:18;3.42;;;1.90;;
80854;SDS011;70272;49.222;-122.892;2023-07-13T12:13:03;2.95;;;1.65;;
80854;SDS011;70272;49.222;-122.892;2023-07-13T12:15:39;2.30;;;1.63;;
80854;SDS011;70272;49.222;-122.892;2023-07-13T12:18:11;3.22;;;2.50;;
80854;SDS011;70272;49.222;-122.892;2023-07-13T12:20:40;4.45;;;2.10;;
80854;SDS011;70272;49.222;-122.892;2023-07-13T12:23:28;3.35;;;2.20;;
80854;SDS011;70272;49.222;-122.892;2023-07-13T12:25:57;3.50;;;2.00;;
80854;SDS011;70272;49.222;-122.892;2023-07-13T12:28:34;5.38;;;2.55;;
80854;SDS011;70272;49.222;-122.892;2023-07-13T12:31:04;7.38;;;2.35;;
80854;SDS011;70272;49.222;-122.892;2023-07-13T12:33:32;3.42;;;1.88;;
80854;SDS011;70272;49.222;-122.892;2023-07-13T12:36:00;8.38;;;2.10;;
80854;SDS011;70272;49.222;-122.892;2023-07-13T12:38:30;5.30;;;2.13;;
80854;SDS011;70272;49.222;-122.892;2023-07-13T12:40:57;3.22;;;1.90;;
80854;SDS011;70272;49.222;-122.892;2023-07-13T12:43:24;2.83;;;1.52;;
80854;SDS011;70272;49.222;-122.892;2023-07-13T12:46:00;4.72;;;2.10;;
80854;SDS011;70272;49.222;-122.892;2023-07-13T12:48:28;2.75;;;1.83;;
80854;SDS011;70272;49.222;-122.892;2023-07-13T12:50:55;4.25;;;2.10;;
80854;SDS011;70272;49.222;-122.892;2023-07-13T12:53:22;2.53;;;1.90;;
80854;SDS011;70272;49.222;-122.892;2023-07-13T12:55:57;5.82;;;1.90;;
80854;SDS011;70272;49.222;-122.892;2023-07-13T12:58:32;2.72;;;1.88;;
80854;SDS011;70272;49.222;-122.892;2023-07-13T13:01:03;3.03;;;1.95;;
80854;SDS011;70272;49.222;-122.892;2023-07-13T13:03:31;3.83;;;2.05;;
80854;SDS011;70272;49.222;-122.892;2023-07-13T13:06:04;6.57;;;1.98;;
80854;SDS011;70272;49.222;-122.892;2023-07-13T13:11:02;4.53;;;2.33;;
80854;SDS011;70272;49.222;-122.892;2023-07-13T13:13:28;5.38;;;2.47;;
80854;SDS011;70272;49.222;-122.892;2023-07-13T13:15:55;8.70;;;2.42;;
80854;SDS011;70272;49.222;-122.892;2023-07-13T13:18:23;5.70;;;2.05;;
80854;SDS011;70272;49.222;-122.892;2023-07-13T13:20:50;4.38;;;2.40;;
80854;SDS011;70272;49.222;-122.892;2023-07-13T13:23:18;3.65;;;2.08;;
80854;SDS011;70272;49.222;-122.892;2023-07-13T13:25:50;2.35;;;1.65;;
80854;SDS011;70272;49.222;-122.892;2023-07-13T13:28:17;3.55;;;2.05;;
80854;SDS011;70272;49.222;-122.892;2023-07-13T13:30:45;3.65;;;2.50;;
80854;SDS011;70272;49.222;-122.892;2023-07-13T13:33:15;9.18;;;3.20;;
80854;SDS011;70272;49.222;-122.892;2023-07-13T13:35:43;5.05;;;2.40;;
80854;SDS011;70272;49.222;-122.892;2023-07-13T13:40:40;3.50;;;2.33;;
80854;SDS011;70272;49.222;-122.892;2023-07-13T13:43:17;4.22;;;2.70;;
80854;SDS011;70272;49.222;-122.892;2023-07-13T13:45:44;4.38;;;2.83;;
80854;SDS011;70272;49.222;-122.892;2023-07-13T13:48:20;6.05;;;2.45;;
80854;SDS011;70272;49.222;-122.892;2023-07-13T13:50:57;6.60;;;3.53;;
80854;SDS011;70272;49.222;-122.892;2023-07-13T13:53:25;5.57;;;2.55;;
80854;SDS011;70272;49.222;-122.892;2023-07-13T13:55:51;8.00;;;3.13;;
80854;SDS011;70272;49.222;-122.892;2023-07-13T13:58:18;5.85;;;2.88;;
80854;SDS011;70272;49.222;-122.892;2023-07-13T14:00:45;5.60;;;2.47;;
80854;SDS011;70272;49.222;-122.892;2023-07-13T14:03:20;6.07;;;4.13;;
80854;SDS011;70272;49.222;-122.892;2023-07-13T14:05:49;4.93;;;2.92;;
80854;SDS011;70272;49.222;-122.892;2023-07-13T14:08:17;4.65;;;2.30;;
80854;SDS011;70272;49.222;-122.892;2023-07-13T14:10:44;4.70;;;3.65;;
80854;SDS011;70272;49.222;-122.892;2023-07-13T14:13:20;6.18;;;3.10;;
80854;SDS011;70272;49.222;-122.892;2023-07-13T14:15:48;5.25;;;2.55;;
80854;SDS011;70272;49.222;-122.892;2023-07-13T14:18:15;5.45;;;2.65;;
80854;SDS011;70272;49.222;-122.892;2023-07-13T14:20:44;4.22;;;2.53;;
80854;SDS011;70272;49.222;-122.892;2023-07-13T14:23:15;4.10;;;2.53;;
80854;SDS011;70272;49.222;-122.892;2023-07-13T14:25:46;5.28;;;2.70;;
80854;SDS011;70272;49.222;-122.892;2023-07-13T14:28:25;5.13;;;2.97;;
80854;SDS011;70272;49.222;-122.892;2023-07-13T14:30:52;6.57;;;3.13;;
80854;SDS011;70272;49.222;-122.892;2023-07-13T14:33:20;6.32;;;3.00;;
80854;SDS011;70272;49.222;-122.892;2023-07-13T14:35:46;7.03;;;3.80;;
80854;SDS011;70272;49.222;-122.892;2023-07-13T14:38:15;6.15;;;2.58;;
80854;SDS011;70272;49.222;-122.892;2023-07-13T14:40:44;3.75;;;2.40;;
80854;SDS011;70272;49.222;-122.892;2023-07-13T14:43:11;7.95;;;3.22;;
80854;SDS011;70272;49.222;-122.892;2023-07-13T14:45:44;4.85;;;2.65;;
80854;SDS011;70272;49.222;-122.892;2023-07-13T14:50:49;7.03;;;2.50;;
80854;SDS011;70272;49.222;-122.892;2023-07-13T14:53:19;3.22;;;2.55;;
80854;SDS011;70272;49.222;-122.892;2023-07-13T14:55:46;4.93;;;2.65;;
80854;SDS011;70272;49.222;-122.892;2023-07-13T14:58:12;3.92;;;2.45;;
80854;SDS011;70272;49.222;-122.892;2023-07-13T15:00:39;4.75;;;2.65;;
80854;SDS011;70272;49.222;-122.892;2023-07-13T15:03:06;7.32;;;2.55;;
80854;SDS011;70272;49.222;-122.892;2023-07-13T15:05:46;4.22;;;2.30;;
80854;SDS011;70272;49.222;-122.892;2023-07-13T15:08:13;5.63;;;2.78;;
80854;SDS011;70272;49.222;-122.892;2023-07-13T15:10:40;4.45;;;2.35;;